Time;durP1;ratioP1;P1;durP2;ratioP2;P2;SDS_P1;SDS_P2;PMS_P1;PMS_P2;Temp;Humidity;BMP_temperature;BMP_pressure;BME280_temperature;BME280_humidity;BME280_pressure;Samples;Min_cycle;Max_cycle;Signal;HPM_P1;HPM_P2
2023/12/26 00:01:47;;;;;;;2.33;1.53;;;9.10;99.90;;;;;;8219402;28;20291;-63
2023/12/26 00:05:48;;;;;;;1.70;1.60;;;9.20;99.90;;;;;;8223661;28;20221;-64
2023/12/26 00:09:49;;;;;;;1.93;1.57;;;9.20;99.90;;;;;;8214580;28;20228;-65
2023/12/26 00:13:51;;;;;;;4.10;2.17;;;9.20;99.90;;;;;;8224118;28;20206;-65
2023/12/26 00:17:51;;;;;;;1.93;1.40;;;9.20;99.90;;;;;;8225462;28;20219;-66
2023/12/26 00:21:52;;;;;;;1.90;1.50;;;9.20;99.90;;;;;;8224755;28;20194;-64
2023/12/26 00:25:53;;;;;;;2.00;1.80;;;9.20;99.90;;;;;;8218959;28;20222;-65
2023/12/26 00:29:54;;;;;;;1.93;1.70;;;9.20;99.90;;;;;;8214141;28;20191;-65
2023/12/26 00:33:56;;;;;;;1.67;1.47;;;9.20;99.90;;;;;;8217916;28;20777;-63
2023/12/26 00:37:58;;;;;;;2.00;1.60;;;9.10;99.90;;;;;;8206707;28;20218;-64
2023/12/26 00:41:59;;;;;;;1.93;1.53;;;9.10;99.90;;;;;;8214279;28;20238;-64
2023/12/26 00:46:00;;;;;;;2.07;1.30;;;9.10;99.90;;;;;;8217890;28;20207;-63
2023/12/26 00:50:01;;;;;;;2.23;1.53;;;9.10;99.90;;;;;;8220124;28;20178;-63
2023/12/26 00:54:02;;;;;;;2.20;1.33;;;9.10;99.90;;;;;;8215697;28;20275;-63
2023/12/26 00:58:05;;;;;;;2.50;2.00;;;9.10;99.90;;;;;;8214345;28;20199;-64
2023/12/26 01:02:06;;;;;;;2.73;1.90;;;9.10;99.90;;;;;;8211534;28;20207;-63
2023/12/26 01:06:07;;;;;;;2.33;2.07;;;9.10;99.90;;;;;;8216514;28;20222;-64
2023/12/26 01:10:08;;;;;;;2.70;2.20;;;9.00;99.90;;;;;;8213808;28;20198;-64
2023/12/26 01:14:09;;;;;;;5.10;3.00;;;9.00;99.90;;;;;;8221625;28;20239;-64
2023/12/26 01:18:09;;;;;;;4.53;2.97;;;9.00;99.90;;;;;;8208615;28;20263;-63
2023/12/26 01:22:10;;;;;;;5.10;3.07;;;9.00;99.90;;;;;;8216282;28;20439;-63
2023/12/26 01:26:11;;;;;;;4.67;2.77;;;9.00;99.90;;;;;;8213979;28;20783;-62
2023/12/26 01:30:11;;;;;;;4.33;2.30;;;9.00;99.90;;;;;;8207250;28;20285;-63
2023/12/26 01:34:12;;;;;;;2.43;1.97;;;9.10;99.90;;;;;;8210903;28;20194;-62
2023/12/26 01:38:13;;;;;;;3.40;2.17;;;9.10;99.90;;;;;;8209574;28;20191;-62
2023/12/26 01:42:14;;;;;;;2.67;2.40;;;9.10;99.90;;;;;;8215537;28;20257;-62
2023/12/26 01:46:15;;;;;;;3.60;2.30;;;9.10;99.90;;;;;;8208041;28;20385;-63
2023/12/26 01:50:17;;;;;;;3.23;2.10;;;9.10;99.90;;;;;;8215883;28;20194;-63
2023/12/26 01:54:19;;;;;;;3.10;2.13;;;9.10;99.90;;;;;;8213448;28;20217;-64
2023/12/26 01:58:20;;;;;;;4.50;2.27;;;9.10;99.90;;;;;;8219506;28;20194;-63
2023/12/26 02:02:22;;;;;;;1.60;1.50;;;9.10;99.90;;;;;;8214498;28;20225;-63
2023/12/26 02:06:23;;;;;;;2.07;1.50;;;9.10;99.90;;;;;;8207688;28;20226;-63
2023/12/26 02:10:24;;;;;;;1.40;1.30;;;9.10;99.90;;;;;;8203088;28;20221;-63
2023/12/26 02:14:24;;;;;;;2.20;1.40;;;9.10;99.90;;;;;;8209301;28;20194;-63
2023/12/26 02:18:26;;;;;;;2.10;1.60;;;9.10;99.90;;;;;;8211200;28;20191;-62
2023/12/26 02:22:26;;;;;;;1.33;1.23;;;9.10;99.90;;;;;;8204147;28;20187;-65
2023/12/26 02:26:30;;;;;;;1.50;1.40;;;9.10;99.90;;;;;;8209084;28;20557;-63
2023/12/26 02:30:32;;;;;;;1.20;1.10;;;9.10;99.90;;;;;;8208521;28;20202;-62
2023/12/26 02:34:33;;;;;;;1.50;1.40;;;9.10;99.90;;;;;;8208267;28;20273;-62
2023/12/26 02:38:34;;;;;;;1.37;1.27;;;9.20;99.90;;;;;;8209718;28;20407;-62
2023/12/26 02:42:35;;;;;;;1.90;1.63;;;9.20;99.90;;;;;;8205386;28;20274;-63
2023/12/26 02:46:36;;;;;;;1.37;1.27;;;9.20;99.90;;;;;;8206186;28;20215;-63
2023/12/26 02:50:37;;;;;;;2.00;1.07;;;9.20;99.90;;;;;;8208506;28;20207;-63
2023/12/26 02:54:38;;;;;;;1.63;0.90;;;9.20;99.90;;;;;;8209366;28;20227;-63
2023/12/26 02:58:39;;;;;;;0.70;0.70;;;9.20;99.90;;;;;;8222190;28;20187;-63
2023/12/26 03:02:39;;;;;;;1.80;0.73;;;9.30;99.90;;;;;;8223402;28;20223;-63
2023/12/26 03:06:40;;;;;;;0.93;0.73;;;9.30;99.90;;;;;;8216141;28;20228;-64
2023/12/26 03:10:41;;;;;;;0.70;0.67;;;9.30;99.90;;;;;;8216751;28;20306;-64
2023/12/26 03:14:42;;;;;;;0.80;0.70;;;9.30;99.90;;;;;;8207067;28;20196;-62
2023/12/26 03:18:43;;;;;;;0.70;0.70;;;9.30;99.90;;;;;;8206568;28;20503;-63
2023/12/26 03:22:44;;;;;;;0.70;0.70;;;9.30;99.90;;;;;;8200164;28;20204;-63
2023/12/26 03:26:45;;;;;;;0.80;0.70;;;9.30;99.90;;;;;;8192066;28;20293;-63
2023/12/26 03:30:46;;;;;;;1.10;0.70;;;9.30;99.90;;;;;;8191485;28;20198;-63
2023/12/26 03:34:47;;;;;;;1.17;0.80;;;9.30;99.90;;;;;;8197982;28;20295;-63
2023/12/26 03:38:47;;;;;;;1.80;0.57;;;9.40;99.90;;;;;;8200622;28;20187;-63
2023/12/26 03:42:48;;;;;;;0.80;0.50;;;9.40;99.90;;;;;;8195174;28;20263;-63
2023/12/26 03:46:49;;;;;;;0.87;0.60;;;9.40;99.90;;;;;;8198662;28;20305;-64
2023/12/26 03:50:49;;;;;;;0.70;0.60;;;9.40;99.90;;;;;;8190886;28;20211;-63
2023/12/26 03:54:52;;;;;;;0.50;0.50;;;9.50;99.90;;;;;;8193333;28;20892;-62
2023/12/26 03:58:53;;;;;;;2.60;0.67;;;9.50;99.90;;;;;;8193415;28;20255;-64
2023/12/26 04:02:54;;;;;;;1.57;0.40;;;9.60;99.90;;;;;;8212031;28;20195;-63
2023/12/26 04:06:54;;;;;;;0.60;0.40;;;9.60;99.90;;;;;;8194717;28;20285;-67
2023/12/26 04:10:55;;;;;;;0.80;0.50;;;9.60;99.90;;;;;;8192283;28;20195;-63
2023/12/26 04:14:56;;;;;;;0.60;0.50;;;9.60;99.90;;;;;;8197839;28;20269;-65
2023/12/26 04:18:56;;;;;;;0.63;0.50;;;9.70;99.90;;;;;;8210280;28;20202;-64
2023/12/26 04:22:57;;;;;;;1.00;0.40;;;9.60;99.90;;;;;;8215270;28;20187;-66
2023/12/26 04:26:58;;;;;;;0.90;0.50;;;9.60;99.90;;;;;;8215552;28;20219;-64
2023/12/26 04:31:00;;;;;;;0.67;0.60;;;9.60;99.90;;;;;;8210475;28;20223;-63
2023/12/26 04:35:00;;;;;;;0.60;0.40;;;9.60;99.90;;;;;;8210376;28;20319;-64
2023/12/26 04:39:03;;;;;;;0.43;0.40;;;9.60;99.90;;;;;;8211779;28;20196;-64
2023/12/26 04:43:08;;;;;;;0.53;0.40;;;9.50;99.90;;;;;;8212242;28;20199;-64
2023/12/26 04:47:09;;;;;;;1.23;0.50;;;9.50;99.90;;;;;;8209350;28;20204;-63
2023/12/26 04:51:15;;;;;;;1.30;0.40;;;9.60;99.90;;;;;;8218119;28;20196;-65
2023/12/26 04:55:16;;;;;;;0.63;0.40;;;9.60;99.90;;;;;;8218728;28;20393;-65
2023/12/26 04:59:17;;;;;;;0.57;0.40;;;9.60;99.90;;;;;;8213794;28;20242;-66
2023/12/26 05:03:17;;;;;;;0.80;0.50;;;9.70;99.90;;;;;;8211591;28;20301;-65
2023/12/26 05:07:18;;;;;;;0.40;0.40;;;9.70;99.90;;;;;;8228330;28;20198;-68
2023/12/26 05:11:23;;;;;;;0.67;0.40;;;9.70;99.90;;;;;;8213901;28;20203;-66
2023/12/26 05:15:23;;;;;;;1.50;0.40;;;9.70;99.90;;;;;;8209954;28;20278;-67
2023/12/26 05:19:24;;;;;;;0.33;0.30;;;9.80;99.90;;;;;;8215789;28;20200;-66
2023/12/26 05:23:25;;;;;;;0.40;0.40;;;9.80;99.90;;;;;;8211059;28;20231;-66
2023/12/26 05:27:26;;;;;;;0.73;0.50;;;9.80;99.90;;;;;;8190893;28;20195;-65
2023/12/26 05:31:27;;;;;;;0.97;0.40;;;9.70;99.90;;;;;;8197308;28;20211;-64
2023/12/26 05:35:28;;;;;;;0.93;0.40;;;9.70;99.90;;;;;;8198938;28;20195;-64
2023/12/26 05:39:28;;;;;;;0.40;0.33;;;9.70;99.90;;;;;;8201196;28;20199;-64
2023/12/26 05:43:29;;;;;;;0.50;0.40;;;9.70;99.90;;;;;;8198390;28;20215;-62
2023/12/26 05:47:30;;;;;;;0.80;0.60;;;9.60;99.90;;;;;;8198260;28;20181;-64
2023/12/26 05:51:30;;;;;;;0.50;0.50;;;9.60;99.90;;;;;;8193439;28;20191;-64
2023/12/26 05:55:31;;;;;;;0.80;0.50;;;9.60;99.90;;;;;;8191710;28;20253;-65
2023/12/26 05:59:32;;;;;;;0.50;0.43;;;9.60;99.90;;;;;;8198668;28;20196;-63
2023/12/26 06:03:35;;;;;;;0.60;0.60;;;9.60;99.90;;;;;;8197436;28;20212;-65
2023/12/26 06:07:36;;;;;;;0.70;0.50;;;9.60;99.90;;;;;;8192338;28;20184;-66
2023/12/26 06:11:36;;;;;;;0.93;0.50;;;9.60;99.90;;;;;;8196370;28;20203;-64
2023/12/26 06:15:37;;;;;;;0.80;0.60;;;9.70;99.90;;;;;;8200194;28;20381;-66
2023/12/26 06:19:38;;;;;;;0.60;0.50;;;9.70;99.90;;;;;;8198360;28;20196;-65
2023/12/26 06:23:38;;;;;;;0.97;0.80;;;9.80;99.90;;;;;;8201811;28;20216;-65
2023/12/26 06:27:39;;;;;;;0.97;0.70;;;9.90;99.90;;;;;;8197089;28;20247;-65
2023/12/26 06:31:40;;;;;;;2.20;0.80;;;9.90;99.90;;;;;;8203032;28;20206;-66
2023/12/26 06:35:41;;;;;;;1.10;0.80;;;9.90;99.90;;;;;;8208072;28;20202;-64
2023/12/26 06:39:43;;;;;;;0.57;0.57;;;10.00;99.90;;;;;;8214147;28;20227;-65
2023/12/26 06:43:44;;;;;;;1.90;0.83;;;10.00;99.90;;;;;;8205493;28;20208;-65
2023/12/26 06:47:45;;;;;;;1.13;0.43;;;10.00;99.90;;;;;;8210151;28;20217;-64
2023/12/26 06:51:46;;;;;;;1.57;0.60;;;10.10;99.90;;;;;;8215584;28;20185;-67
2023/12/26 06:55:46;;;;;;;0.83;0.60;;;10.00;99.90;;;;;;8216558;28;20445;-66
2023/12/26 06:59:48;;;;;;;1.30;0.63;;;10.10;99.90;;;;;;8216711;28;20211;-66
2023/12/26 07:03:49;;;;;;;0.67;0.47;;;10.10;99.90;;;;;;8217835;28;20231;-65
2023/12/26 07:07:50;;;;;;;1.00;0.50;;;10.10;99.90;;;;;;8230062;28;20239;-65
2023/12/26 07:11:51;;;;;;;0.90;0.60;;;10.10;99.90;;;;;;8223133;28;20242;-66
2023/12/26 07:15:52;;;;;;;0.80;0.60;;;10.20;99.90;;;;;;8218618;28;20300;-65
2023/12/26 07:19:52;;;;;;;0.80;0.57;;;10.20;99.90;;;;;;8217852;28;20192;-64
2023/12/26 07:23:53;;;;;;;1.57;0.60;;;10.20;99.90;;;;;;8213880;28;20266;-64
2023/12/26 07:27:54;;;;;;;1.63;0.83;;;10.20;99.90;;;;;;8211271;28;20187;-66
2023/12/26 07:31:55;;;;;;;0.60;0.57;;;10.20;99.90;;;;;;8227993;28;20223;-66
2023/12/26 07:35:57;;;;;;;2.70;0.80;;;10.20;99.90;;;;;;8213174;28;20352;-65
2023/12/26 07:39:58;;;;;;;0.73;0.63;;;10.10;99.90;;;;;;8215863;28;20198;-65
2023/12/26 07:44:00;;;;;;;1.83;0.53;;;10.10;99.90;;;;;;8214841;28;20220;-64
2023/12/26 07:48:01;;;;;;;1.10;0.60;;;10.10;99.90;;;;;;8197914;28;20181;-64
2023/12/26 07:52:01;;;;;;;1.20;0.63;;;10.20;99.90;;;;;;8201258;28;20207;-65
2023/12/26 07:56:02;;;;;;;0.87;0.63;;;10.20;99.90;;;;;;8202212;28;20224;-63
2023/12/26 08:00:09;;;;;;;1.33;0.70;;;10.20;99.90;;;;;;8220916;28;20202;-64
2023/12/26 08:04:10;;;;;;;1.87;0.60;;;10.20;99.90;;;;;;8212028;28;20216;-63
2023/12/26 08:08:11;;;;;;;1.00;0.60;;;10.30;99.90;;;;;;8202164;28;20307;-67
2023/12/26 08:12:12;;;;;;;0.70;0.70;;;10.40;80.90;;;;;;8194922;28;20192;-64
2023/12/26 08:16:13;;;;;;;1.90;0.80;;;10.40;51.80;;;;;;8202396;28;20194;-65
2023/12/26 08:20:14;;;;;;;0.53;0.40;;;10.50;29.50;;;;;;8194582;28;20197;-65
2023/12/26 08:24:15;;;;;;;1.00;0.60;;;10.50;1.00;;;;;;8199456;28;20204;-67
2023/12/26 08:28:16;;;;;;;0.90;0.57;;;10.60;1.00;;;;;;8197813;28;20221;-64
2023/12/26 08:32:16;;;;;;;1.20;0.70;;;10.60;1.00;;;;;;8193684;28;20264;-64
2023/12/26 08:36:17;;;;;;;0.63;0.40;;;10.60;1.00;;;;;;8196222;28;20221;-64
2023/12/26 08:40:19;;;;;;;0.77;0.50;;;10.70;1.00;;;;;;8195059;28;20223;-70
2023/12/26 08:44:20;;;;;;;1.70;0.57;;;10.70;99.90;;;;;;8197804;28;20209;-65
2023/12/26 08:48:21;;;;;;;0.73;0.40;;;10.70;99.90;;;;;;8198902;28;20242;-68
2023/12/26 08:52:23;;;;;;;0.63;0.40;;;10.80;99.90;;;;;;8192964;28;20181;-66
2023/12/26 08:56:24;;;;;;;0.97;0.67;;;10.80;99.90;;;;;;8210378;28;20196;-65
2023/12/26 09:00:25;;;;;;;0.70;0.30;;;10.80;58.00;;;;;;8204974;28;20184;-65
2023/12/26 09:04:29;;;;;;;1.00;0.40;;;10.80;23.60;;;;;;8212344;28;20296;-65
2023/12/26 09:08:30;;;;;;;2.10;0.40;;;10.80;15.50;;;;;;8218037;28;20226;-66
2023/12/26 09:12:31;;;;;;;2.27;0.30;;;10.90;4.90;;;;;;8207238;28;20184;-63
2023/12/26 09:16:32;;;;;;;0.50;0.30;;;10.90;1.00;;;;;;8204181;28;20244;-65
2023/12/26 09:20:32;;;;;;;0.60;0.30;;;11.00;1.00;;;;;;8202217;28;20188;-65
2023/12/26 09:24:33;;;;;;;1.73;0.40;;;11.00;1.00;;;;;;8203037;28;20504;-66
2023/12/26 09:28:34;;;;;;;0.40;0.20;;;11.00;1.00;;;;;;8203279;28;20616;-70
2023/12/26 09:32:35;;;;;;;0.40;0.20;;;11.00;1.00;;;;;;8200079;28;20224;-66
2023/12/26 09:36:36;;;;;;;0.30;0.20;;;11.00;1.00;;;;;;8198902;28;20229;-65
2023/12/26 09:40:37;;;;;;;1.23;0.20;;;11.00;1.00;;;;;;8191325;28;20185;-66
2023/12/26 09:44:38;;;;;;;0.27;0.10;;;11.10;1.00;;;;;;8196614;28;20232;-64
2023/12/26 09:48:39;;;;;;;0.33;0.27;;;11.10;1.00;;;;;;8202977;28;20188;-64
2023/12/26 09:52:47;;;;;;;0.97;0.23;;;11.10;1.00;;;;;;8203552;28;20226;-65
2023/12/26 09:56:48;;;;;;;0.30;0.13;;;11.00;1.00;;;;;;8193015;28;20188;-64
2023/12/26 10:00:50;;;;;;;0.30;0.20;;;10.60;99.90;;;;;;8191943;28;20180;-68
2023/12/26 10:04:51;;;;;;;0.23;0.13;;;10.10;99.90;;;;;;8197960;28;20303;-63
2023/12/26 10:08:51;;;;;;;0.60;0.30;;;9.80;1.00;;;;;;8199780;28;20187;-64
2023/12/26 10:12:54;;;;;;;1.10;0.30;;;9.60;1.00;;;;;;8201418;28;20270;-65
2023/12/26 10:16:55;;;;;;;0.60;0.20;;;9.50;1.00;;;;;;8201433;28;20302;-66
2023/12/26 10:20:56;;;;;;;0.77;0.40;;;9.30;99.90;;;;;;8192871;28;20229;-66
2023/12/26 10:25:00;;;;;;;1.53;0.20;;;9.20;99.90;;;;;;8190475;28;20377;-67
2023/12/26 10:29:02;;;;;;;1.20;0.40;;;9.00;99.90;;;;;;8202594;28;20245;-67
2023/12/26 10:33:03;;;;;;;0.83;0.27;;;9.00;99.90;;;;;;8194078;28;20202;-66
2023/12/26 10:37:05;;;;;;;1.60;0.40;;;9.00;1.00;;;;;;8200444;28;20239;-63
2023/12/26 10:41:25;;;;;;;1.67;0.37;;;9.10;99.90;;;;;;8216728;28;20192;-63
2023/12/26 10:45:27;;;;;;;1.07;0.40;;;9.10;99.90;;;;;;8202717;28;20210;-64
2023/12/26 10:49:28;;;;;;;0.63;0.33;;;9.20;99.90;;;;;;8200696;28;20260;-67
2023/12/26 10:53:42;;;;;;;1.20;0.50;;;9.20;99.90;;;;;;8205957;28;20189;-65
2023/12/26 10:57:45;;;;;;;1.53;0.40;;;9.30;99.90;;;;;;8207261;28;20247;-64
2023/12/26 11:01:46;;;;;;;0.63;0.30;;;9.40;99.90;;;;;;8215343;28;20192;-64
2023/12/26 11:05:47;;;;;;;0.93;0.40;;;9.40;99.90;;;;;;8199560;28;20262;-65
2023/12/26 11:09:48;;;;;;;1.20;0.50;;;9.50;99.90;;;;;;8200930;28;20310;-65
2023/12/26 11:13:50;;;;;;;1.47;0.50;;;9.50;99.90;;;;;;8208318;28;20187;-64
2023/12/26 11:17:51;;;;;;;1.13;0.60;;;9.60;99.90;;;;;;8200406;28;20192;-67
2023/12/26 11:21:52;;;;;;;1.10;0.60;;;9.60;81.60;;;;;;8204933;28;20206;-65
2023/12/26 11:25:54;;;;;;;1.33;0.60;;;9.50;81.20;;;;;;8204163;28;20211;-65
2023/12/26 11:29:55;;;;;;;0.67;0.40;;;9.20;99.90;;;;;;8200693;28;20186;-65
2023/12/26 11:33:59;;;;;;;1.67;0.73;;;9.10;99.90;;;;;;8201963;28;20283;-66
2023/12/26 11:37:59;;;;;;;2.07;0.60;;;9.10;99.90;;;;;;8207042;28;20254;-65
2023/12/26 11:42:01;;;;;;;1.03;0.43;;;9.20;99.90;;;;;;8200582;28;20191;-65
2023/12/26 11:46:01;;;;;;;2.30;0.50;;;9.30;99.90;;;;;;8201903;28;20302;-67
2023/12/26 11:50:02;;;;;;;1.70;0.53;;;9.20;99.90;;;;;;8198856;28;20191;-66
2023/12/26 11:54:03;;;;;;;3.63;0.60;;;9.10;99.90;;;;;;8207124;28;20221;-65
2023/12/26 11:58:04;;;;;;;3.63;0.90;;;8.90;99.90;;;;;;8193621;28;20190;-67
2023/12/26 12:02:05;;;;;;;1.57;0.50;;;8.90;99.90;;;;;;8190713;28;20190;-66
2023/12/26 12:06:14;;;;;;;2.10;0.70;;;8.90;99.90;;;;;;8190437;28;21476;-66
2023/12/26 12:10:14;;;;;;;2.10;0.47;;;8.90;99.90;;;;;;8192241;28;20186;-66
2023/12/26 12:14:15;;;;;;;1.30;0.53;;;8.90;99.90;;;;;;8191826;28;20189;-65
2023/12/26 12:18:20;;;;;;;1.23;0.60;;;9.00;99.90;;;;;;8202314;28;20210;-68
2023/12/26 12:22:24;;;;;;;1.43;0.63;;;8.90;99.90;;;;;;8195092;28;20546;-66
2023/12/26 12:26:25;;;;;;;1.80;0.50;;;9.10;1.00;;;;;;8196056;28;20595;-66
2023/12/26 12:30:25;;;;;;;1.90;0.60;;;9.20;99.90;;;;;;8188492;28;20194;-67
2023/12/26 12:34:26;;;;;;;2.10;0.70;;;9.20;1.00;;;;;;8198894;28;20203;-68
2023/12/26 12:38:27;;;;;;;1.40;0.57;;;9.00;1.00;;;;;;8186906;28;20187;-65
2023/12/26 12:42:29;;;;;;;1.30;0.60;;;9.10;1.00;;;;;;8183874;28;20198;-68
2023/12/26 12:46:29;;;;;;;2.37;0.70;;;9.10;10.20;;;;;;8190692;28;20252;-66
2023/12/26 12:50:30;;;;;;;0.97;0.60;;;9.10;47.70;;;;;;8194316;28;20179;-66
2023/12/26 12:54:31;;;;;;;0.90;0.50;;;9.10;35.30;;;;;;8187426;28;20191;-66
2023/12/26 12:58:32;;;;;;;2.60;0.50;;;9.10;1.00;;;;;;8196276;28;20189;-66
2023/12/26 13:02:33;;;;;;;0.83;0.40;;;9.00;1.00;;;;;;8201096;28;20239;-68
2023/12/26 13:06:33;;;;;;;0.90;0.43;;;9.00;1.00;;;;;;8196758;28;20213;-66
2023/12/26 13:10:34;;;;;;;1.10;0.50;;;8.90;1.00;;;;;;8198425;28;20190;-66
2023/12/26 13:14:35;;;;;;;2.90;0.57;;;8.90;1.00;;;;;;8195333;28;20317;-65
2023/12/26 13:18:36;;;;;;;0.90;0.60;;;9.00;1.00;;;;;;8197522;28;20187;-66
2023/12/26 13:22:42;;;;;;;1.37;0.50;;;9.10;1.00;;;;;;8208171;28;20190;-64
2023/12/26 13:26:42;;;;;;;1.67;0.50;;;9.20;99.90;;;;;;8195798;28;20215;-65
2023/12/26 13:30:47;;;;;;;1.13;0.50;;;9.20;99.90;;;;;;8194332;28;20220;-65
2023/12/26 13:34:48;;;;;;;1.03;0.67;;;9.10;1.00;;;;;;8193281;28;20197;-65
2023/12/26 13:38:51;;;;;;;0.93;0.70;;;9.00;1.00;;;;;;8190077;28;20228;-65
2023/12/26 13:42:52;;;;;;;1.63;0.77;;;8.80;99.90;;;;;;8192806;28;20197;-67
2023/12/26 13:46:53;;;;;;;0.70;0.50;;;8.20;1.00;;;;;;8194023;28;20307;-65
2023/12/26 13:50:54;;;;;;;0.80;0.67;;;7.70;28.70;;;;;;8185237;28;20241;-65
2023/12/26 13:54:54;;;;;;;0.90;0.53;;;7.60;1.00;;;;;;8193238;28;20203;-65
2023/12/26 13:58:55;;;;;;;1.40;0.73;;;7.60;1.00;;;;;;8185948;28;20220;-64
2023/12/26 14:02:56;;;;;;;1.20;0.80;;;7.50;99.90;;;;;;8191563;28;20192;-66
2023/12/26 14:06:56;;;;;;;1.37;0.83;;;7.60;99.90;;;;;;8205844;28;20305;-64
2023/12/26 14:10:57;;;;;;;1.73;0.70;;;7.60;99.90;;;;;;8186144;28;20211;-67
2023/12/26 14:14:58;;;;;;;1.50;0.70;;;7.60;99.90;;;;;;8183728;28;20193;-64
2023/12/26 14:18:59;;;;;;;1.87;1.07;;;7.60;99.90;;;;;;8192737;28;20367;-66
2023/12/26 14:23:00;;;;;;;0.93;0.60;;;7.70;99.90;;;;;;8198752;28;20194;-63
2023/12/26 14:27:02;;;;;;;1.87;1.10;;;7.70;99.90;;;;;;8191082;28;20319;-66
2023/12/26 14:31:03;;;;;;;1.57;0.80;;;7.70;99.90;;;;;;8188696;28;20192;-66
2023/12/26 14:35:05;;;;;;;1.13;0.87;;;7.70;99.90;;;;;;8187072;28;20208;-65
2023/12/26 14:39:06;;;;;;;3.43;1.03;;;7.70;99.90;;;;;;8196005;28;21414;-64
2023/12/26 14:43:07;;;;;;;2.90;0.90;;;7.70;99.90;;;;;;8188784;28;20192;-65
2023/12/26 14:47:07;;;;;;;1.20;1.07;;;7.70;99.90;;;;;;8194767;28;20352;-67
2023/12/26 14:51:08;;;;;;;1.40;0.93;;;7.70;99.90;;;;;;8188942;28;20193;-65
2023/12/26 14:55:09;;;;;;;1.63;0.90;;;7.70;99.90;;;;;;8191995;28;20208;-65
2023/12/26 14:59:10;;;;;;;2.73;0.90;;;7.70;99.90;;;;;;8187140;28;20660;-65
2023/12/26 15:03:11;;;;;;;1.90;0.90;;;7.70;99.90;;;;;;8188516;28;20204;-65
2023/12/26 15:07:11;;;;;;;3.73;1.00;;;7.50;99.90;;;;;;8195804;28;20224;-65
2023/12/26 15:11:16;;;;;;;1.10;1.00;;;7.50;99.90;;;;;;8195878;28;20184;-64
2023/12/26 15:15:16;;;;;;;2.93;0.90;;;7.30;99.90;;;;;;8189311;28;20781;-66
2023/12/26 15:19:17;;;;;;;1.03;0.90;;;7.20;99.90;;;;;;8189993;28;20197;-66
2023/12/26 15:23:18;;;;;;;2.13;0.93;;;7.10;99.90;;;;;;8199393;28;20199;-65
2023/12/26 15:27:20;;;;;;;3.07;1.20;;;7.00;99.90;;;;;;8201470;28;20299;-65
2023/12/26 15:31:21;;;;;;;4.73;1.70;;;6.90;99.90;;;;;;8206819;28;20287;-65
2023/12/26 15:35:22;;;;;;;2.30;1.50;;;6.80;99.90;;;;;;8205391;28;20192;-64
2023/12/26 15:39:22;;;;;;;4.10;1.40;;;6.70;99.90;;;;;;8211987;28;20188;-64
2023/12/26 15:43:23;;;;;;;4.33;1.80;;;6.70;99.90;;;;;;8210943;28;20255;-64
2023/12/26 15:47:24;;;;;;;4.37;1.80;;;6.70;99.90;;;;;;8217750;28;20248;-65
2023/12/26 15:51:25;;;;;;;2.17;1.30;;;6.60;1.00;;;;;;8219058;28;20185;-63
2023/12/26 15:55:26;;;;;;;2.77;1.50;;;6.50;12.00;;;;;;8218623;28;20184;-63
2023/12/26 15:59:26;;;;;;;2.63;1.47;;;6.40;99.90;;;;;;8212594;28;20212;-65
2023/12/26 16:03:27;;;;;;;2.20;1.50;;;6.40;8.20;;;;;;8215431;28;20270;-65
2023/12/26 16:07:28;;;;;;;5.63;1.70;;;6.30;99.90;;;;;;8214209;28;20260;-65
2023/12/26 16:11:33;;;;;;;2.97;1.50;;;6.20;1.00;;;;;;8207152;28;20189;-64
2023/12/26 16:15:34;;;;;;;4.13;1.70;;;6.20;99.90;;;;;;8214822;28;20192;-65
2023/12/26 16:19:40;;;;;;;4.17;1.40;;;6.10;1.00;;;;;;8206727;28;20205;-63
2023/12/26 16:23:41;;;;;;;2.53;1.90;;;6.10;99.90;;;;;;8210312;28;20743;-64
2023/12/26 16:27:48;;;;;;;4.60;1.83;;;6.10;99.90;;;;;;8210103;28;20192;-65
2023/12/26 16:31:51;;;;;;;5.37;1.50;;;6.10;10.40;;;;;;8210950;28;20215;-64
2023/12/26 16:35:52;;;;;;;4.00;1.70;;;6.10;1.00;;;;;;8214177;28;20188;-64
2023/12/26 16:39:53;;;;;;;4.27;1.70;;;6.00;1.00;;;;;;8215282;28;20374;-64
2023/12/26 16:43:55;;;;;;;3.60;1.50;;;5.90;1.00;;;;;;8203242;28;20305;-64
2023/12/26 16:47:55;;;;;;;4.03;1.43;;;6.00;1.00;;;;;;8206225;28;20186;-63
2023/12/26 16:51:56;;;;;;;3.63;1.20;;;6.10;99.90;;;;;;8211750;28;20219;-63
2023/12/26 16:55:58;;;;;;;3.13;1.20;;;6.10;99.90;;;;;;8206806;28;20220;-64
2023/12/26 17:00:02;;;;;;;5.40;1.37;;;6.10;99.90;;;;;;8207246;28;20193;-66
2023/12/26 17:04:03;;;;;;;3.93;1.50;;;6.10;99.90;;;;;;8208968;28;20221;-64
2023/12/26 17:08:05;;;;;;;3.43;1.10;;;6.00;99.90;;;;;;8210270;28;20288;-64
2023/12/26 17:12:08;;;;;;;2.37;1.30;;;5.90;99.90;;;;;;8203258;28;20200;-65
2023/12/26 17:16:17;;;;;;;2.00;1.00;;;6.00;99.90;;;;;;8207130;28;20193;-63
2023/12/26 17:20:18;;;;;;;1.23;1.13;;;5.80;99.90;;;;;;8205672;28;20193;-64
2023/12/26 17:24:20;;;;;;;2.33;1.20;;;5.80;99.90;;;;;;8214668;28;20268;-63
2023/12/26 17:28:21;;;;;;;4.97;1.27;;;5.80;99.90;;;;;;8212197;28;20238;-63
2023/12/26 17:32:22;;;;;;;2.43;1.27;;;5.80;99.90;;;;;;8210020;28;20208;-64
2023/12/26 17:36:24;;;;;;;1.83;1.40;;;5.70;99.90;;;;;;8212216;28;20192;-62
2023/12/26 17:40:26;;;;;;;3.70;1.10;;;5.70;99.90;;;;;;8208113;28;20192;-64
2023/12/26 17:44:27;;;;;;;2.30;1.10;;;5.70;99.90;;;;;;8202430;28;20268;-64
2023/12/26 17:48:31;;;;;;;4.03;1.00;;;5.60;99.90;;;;;;8202437;28;20209;-63
2023/12/26 17:52:32;;;;;;;3.23;1.10;;;5.80;54.10;;;;;;8210571;28;20247;-64
2023/12/26 17:56:32;;;;;;;2.67;1.07;;;5.90;29.10;;;;;;8190313;28;20248;-65
2023/12/26 18:00:33;;;;;;;4.53;1.10;;;5.90;16.50;;;;;;8193055;28;20191;-66
2023/12/26 18:04:34;;;;;;;3.90;1.30;;;6.00;1.00;;;;;;8189808;28;20218;-67
2023/12/26 18:08:35;;;;;;;3.67;1.00;;;6.10;1.00;;;;;;8193378;28;20188;-63
2023/12/26 18:12:36;;;;;;;4.57;1.00;;;6.20;1.00;;;;;;8190414;28;20207;-65
2023/12/26 18:16:40;;;;;;;2.10;0.90;;;6.20;1.00;;;;;;8198397;28;20197;-66
2023/12/26 18:20:41;;;;;;;1.97;0.83;;;6.30;1.00;;;;;;8198845;28;20188;-64
2023/12/26 18:24:43;;;;;;;2.33;0.90;;;6.20;1.00;;;;;;8201580;28;20287;-65
2023/12/26 18:28:43;;;;;;;3.60;1.00;;;6.10;1.00;;;;;;8205314;28;20196;-67
2023/12/26 18:32:45;;;;;;;2.00;0.80;;;6.00;1.00;;;;;;8205096;28;20283;-65
2023/12/26 18:36:46;;;;;;;1.97;1.00;;;6.10;1.00;;;;;;8205663;28;20196;-64
2023/12/26 18:40:47;;;;;;;6.13;1.20;;;6.00;1.60;;;;;;8192496;28;20251;-64
2023/12/26 18:44:49;;;;;;;5.57;1.30;;;6.30;1.00;;;;;;8202569;28;20205;-64
2023/12/26 18:48:50;;;;;;;4.17;1.17;;;6.40;1.00;;;;;;8205708;28;20189;-64
2023/12/26 18:52:51;;;;;;;2.77;1.20;;;6.50;1.00;;;;;;8205156;28;20243;-65
2023/12/26 18:56:51;;;;;;;2.47;1.10;;;6.60;1.00;;;;;;8210288;28;20630;-64
2023/12/26 19:00:52;;;;;;;4.37;1.10;;;6.70;1.00;;;;;;8207412;28;20189;-64
2023/12/26 19:04:53;;;;;;;4.37;1.00;;;6.80;1.00;;;;;;8211724;28;20221;-64
2023/12/26 19:08:54;;;;;;;4.13;1.10;;;6.80;1.00;;;;;;8203732;28;20254;-65
2023/12/26 19:13:00;;;;;;;6.13;1.40;;;6.80;1.00;;;;;;8205860;28;20184;-64
2023/12/26 19:17:01;;;;;;;5.63;1.17;;;6.90;1.00;;;;;;8199952;28;20189;-65
2023/12/26 19:21:02;;;;;;;3.40;1.40;;;7.10;1.00;;;;;;8194307;28;20194;-64
2023/12/26 19:25:03;;;;;;;2.97;1.00;;;7.20;1.00;;;;;;8194984;28;20205;-66
2023/12/26 19:29:04;;;;;;;6.03;1.57;;;7.30;1.00;;;;;;8201621;28;20265;-66
2023/12/26 19:33:05;;;;;;;2.77;1.20;;;7.30;1.00;;;;;;8193064;28;20435;-64
2023/12/26 19:37:06;;;;;;;4.57;1.67;;;7.30;1.00;;;;;;8199358;28;20232;-64
2023/12/26 19:41:07;;;;;;;2.87;1.33;;;7.30;1.00;;;;;;8190313;28;20192;-64
2023/12/26 19:45:08;;;;;;;4.33;1.57;;;7.40;1.00;;;;;;8194831;28;20220;-64
2023/12/26 19:49:09;;;;;;;4.23;1.37;;;7.40;1.00;;;;;;8198878;28;20590;-64
2023/12/26 19:53:11;;;;;;;5.37;1.50;;;7.40;1.00;;;;;;8191884;28;20200;-66
2023/12/26 19:57:12;;;;;;;3.60;1.37;;;7.50;1.00;;;;;;8199264;28;20193;-69
2023/12/26 20:01:12;;;;;;;5.63;1.40;;;7.50;1.00;;;;;;8193994;28;20201;-64
2023/12/26 20:05:14;;;;;;;1.87;1.07;;;7.60;1.00;;;;;;8199203;28;20220;-65
2023/12/26 20:09:18;;;;;;;5.00;1.47;;;7.50;1.00;;;;;;8182780;28;20197;-64
2023/12/26 20:13:19;;;;;;;3.87;1.30;;;7.50;1.00;;;;;;8194246;28;20185;-64
2023/12/26 20:17:20;;;;;;;3.57;1.90;;;7.50;1.00;;;;;;8194831;28;20200;-66
2023/12/26 20:21:21;;;;;;;6.63;1.53;;;7.50;1.00;;;;;;8200900;28;20239;-68
2023/12/26 20:25:22;;;;;;;6.20;1.40;;;7.50;1.00;;;;;;8190638;28;20219;-66
2023/12/26 20:29:24;;;;;;;2.90;1.47;;;7.50;1.00;;;;;;8195779;28;20224;-64
2023/12/26 20:33:25;;;;;;;2.83;1.40;;;7.40;1.00;;;;;;8196216;28;20213;-63
2023/12/26 20:37:27;;;;;;;4.50;1.80;;;7.40;1.00;;;;;;8199528;28;20247;-63
2023/12/26 20:41:28;;;;;;;3.57;1.33;;;7.40;1.00;;;;;;8190721;28;20208;-66
2023/12/26 20:45:29;;;;;;;4.30;1.20;;;7.40;1.00;;;;;;8195281;28;20251;-66
2023/12/26 20:49:30;;;;;;;5.60;1.50;;;7.30;1.00;;;;;;8200692;28;20820;-64
2023/12/26 20:53:31;;;;;;;3.43;1.40;;;7.30;1.00;;;;;;8187989;28;20189;-64
2023/12/26 20:57:32;;;;;;;3.73;1.40;;;7.30;1.00;;;;;;8192951;28;20288;-63
2023/12/26 21:01:33;;;;;;;2.40;1.23;;;7.20;1.00;;;;;;8196225;28;20211;-64
2023/12/26 21:05:34;;;;;;;4.70;1.57;;;7.20;1.00;;;;;;8186884;28;20217;-63
2023/12/26 21:09:35;;;;;;;4.00;1.40;;;7.10;1.00;;;;;;8193613;28;20267;-65
2023/12/26 21:13:41;;;;;;;3.50;1.27;;;7.10;1.00;;;;;;8190356;28;20181;-66